createdAt,value
2023-02-12T00:01:40.675Z,2.10
2023-02-12T00:04:09.279Z,1.60
2023-02-12T00:06:39.399Z,1.60
2023-02-12T00:09:07.956Z,1.60
2023-02-12T00:11:36.402Z,1.70
2023-02-12T00:14:06.056Z,1.60
2023-02-12T00:16:34.541Z,1.60
2023-02-12T00:19:03.736Z,1.70
2023-02-12T00:21:32.394Z,1.50
2023-02-12T00:24:00.893Z,1.80
2023-02-12T00:26:29.830Z,1.80
2023-02-12T00:28:58.375Z,1.90
2023-02-12T00:31:29.824Z,1.50
2023-02-12T00:33:59.980Z,1.60
2023-02-12T00:36:31.409Z,1.30
2023-02-12T00:39:01.650Z,1.50
2023-02-12T00:41:31.049Z,1.60
2023-02-12T00:43:59.531Z,1.70
2023-02-12T00:46:28.584Z,1.40
2023-02-12T00:48:57.633Z,1.90
2023-02-12T00:51:26.084Z,1.50
2023-02-12T00:53:54.643Z,1.40
2023-02-12T00:56:23.169Z,1.40
2023-02-12T00:58:51.722Z,1.60
2023-02-12T01:01:20.617Z,1.60
2023-02-12T01:03:49.161Z,1.60
2023-02-12T01:06:17.723Z,1.70
2023-02-12T01:08:51.848Z,1.70
2023-02-12T01:11:20.871Z,1.90
2023-02-12T01:13:50.566Z,1.80
2023-02-12T01:16:23.143Z,1.80
2023-02-12T01:18:55.774Z,1.80
2023-02-12T01:21:29.387Z,1.70
2023-02-12T01:23:59.154Z,1.70
2023-02-12T01:26:29.276Z,1.80
2023-02-12T01:29:01.930Z,2.10
2023-02-12T01:31:33.956Z,2.00
2023-02-12T01:34:05.443Z,1.50
2023-02-12T01:36:35.407Z,1.80
2023-02-12T01:39:06.110Z,2.40
2023-02-12T01:41:39.356Z,2.20
2023-02-12T01:44:11.291Z,1.80
2023-02-12T01:46:40.630Z,1.80
2023-02-12T01:49:17.235Z,1.90
2023-02-12T01:51:47.418Z,1.90
2023-02-12T01:54:19.622Z,2.30
2023-02-12T01:56:48.698Z,1.80
2023-02-12T01:59:19.543Z,1.90
2023-02-12T02:01:48.403Z,1.80
2023-02-12T02:04:22.448Z,2.20
2023-02-12T02:07:03.744Z,2.10
2023-02-12T02:09:36.608Z,1.20
2023-02-12T02:12:25.444Z,1.90
2023-02-12T02:14:58.320Z,1.80
2023-02-12T02:17:57.433Z,2.10
2023-02-12T02:20:59.511Z,1.80
2023-02-12T02:23:40.211Z,2.00
2023-02-12T02:26:35.906Z,1.80
2023-02-12T02:29:16.548Z,1.70
2023-02-12T02:31:53.455Z,1.70
2023-02-12T02:34:54.260Z,1.80
2023-02-12T02:37:32.980Z,1.60
2023-02-12T02:40:13.931Z,1.60
2023-02-12T02:42:58.987Z,2.00
2023-02-12T02:45:39.788Z,2.00
2023-02-12T02:48:34.194Z,1.70
2023-02-12T02:51:11.343Z,2.00
2023-02-12T02:53:45.473Z,1.50
2023-02-12T02:56:18.133Z,1.70
2023-02-12T02:58:57.317Z,1.60
2023-02-12T03:01:38.802Z,1.60
2023-02-12T03:04:11.357Z,1.70
2023-02-12T03:06:59.091Z,1.40
2023-02-12T03:09:49.955Z,1.80
2023-02-12T03:12:34.448Z,1.50
2023-02-12T03:15:22.628Z,1.60
2023-02-12T03:17:51.581Z,1.60
2023-02-12T03:20:25.207Z,2.00
2023-02-12T03:22:59.479Z,1.60
2023-02-12T03:25:44.558Z,1.40
2023-02-12T03:28:24.848Z,1.40
2023-02-12T03:31:24.973Z,1.50
2023-02-12T03:34:17.299Z,1.90
2023-02-12T03:36:49.612Z,1.30
2023-02-12T03:39:50.110Z,1.70
2023-02-12T03:42:36.612Z,1.60
2023-02-12T03:45:19.943Z,1.30
2023-02-12T03:48:06.623Z,1.40
2023-02-12T03:51:02.595Z,1.40
2023-02-12T03:53:31.993Z,1.40
2023-02-12T03:56:08.017Z,1.20
2023-02-12T03:58:38.924Z,1.30
2023-02-12T04:01:07.570Z,1.20
2023-02-12T04:03:36.891Z,1.80
2023-02-12T04:06:05.927Z,1.60
2023-02-12T04:08:34.429Z,1.70
2023-02-12T04:11:33.703Z,2.40
2023-02-12T04:14:20.287Z,2.00
2023-02-12T04:17:41.835Z,2.70
2023-02-12T04:20:22.522Z,1.80
2023-02-12T04:23:31.842Z,1.80
2023-02-12T04:26:29.205Z,2.00
2023-02-12T04:29:24.987Z,1.60
2023-02-12T04:32:08.103Z,1.30
2023-02-12T04:35:05.787Z,1.30
2023-02-12T04:37:46.396Z,1.70
2023-02-12T04:40:18.565Z,1.60
2023-02-12T04:42:50.218Z,1.30
2023-02-12T04:45:26.809Z,1.70
2023-02-12T04:47:55.468Z,1.30
2023-02-12T04:50:24.392Z,2.00
2023-02-12T04:52:52.954Z,1.80
2023-02-12T04:55:21.385Z,2.00
2023-02-12T04:57:49.835Z,2.20
2023-02-12T05:00:18.774Z,1.70
2023-02-12T05:02:47.210Z,1.90
2023-02-12T05:05:16.065Z,1.40
2023-02-12T05:07:44.878Z,1.50
2023-02-12T05:10:13.368Z,1.50
2023-02-12T05:12:41.909Z,1.90
2023-02-12T05:15:10.892Z,1.50
2023-02-12T05:17:39.576Z,1.80
2023-02-12T05:20:08.890Z,1.80
2023-02-12T05:22:37.411Z,2.00
2023-02-12T05:25:07.049Z,1.70
2023-02-12T05:27:35.537Z,1.70
2023-02-12T05:30:06.005Z,1.70
2023-02-12T05:32:34.459Z,1.80
2023-02-12T05:35:02.970Z,1.90
2023-02-12T05:37:31.857Z,1.60
2023-02-12T05:40:00.401Z,1.60
2023-02-12T05:42:30.253Z,1.20
2023-02-12T05:44:58.659Z,1.80
2023-02-12T05:47:27.248Z,1.40
2023-02-12T05:49:55.740Z,1.40
2023-02-12T05:52:24.304Z,1.70
2023-02-12T05:54:52.776Z,1.80
2023-02-12T05:57:21.230Z,1.30
2023-02-12T05:59:49.725Z,2.10
2023-02-12T06:02:18.198Z,2.20
2023-02-12T06:04:48.605Z,2.10
2023-02-12T06:07:17.298Z,1.80
2023-02-12T06:09:45.877Z,2.20
2023-02-12T06:12:14.367Z,3.00
2023-02-12T06:14:43.227Z,2.80
2023-02-12T06:17:11.922Z,2.20
2023-02-12T06:19:40.560Z,2.40
2023-02-12T06:22:09.375Z,2.80
2023-02-12T06:24:37.999Z,2.20
2023-02-12T06:27:06.448Z,2.10
2023-02-12T06:29:35.025Z,2.60
2023-02-12T06:32:03.635Z,2.40
2023-02-12T06:34:32.768Z,2.10
2023-02-12T06:37:01.244Z,1.90
2023-02-12T06:39:29.811Z,2.00
2023-02-12T06:41:58.759Z,2.20
2023-02-12T06:44:27.230Z,1.90
2023-02-12T06:46:55.705Z,1.90
2023-02-12T06:49:24.257Z,2.10
2023-02-12T06:51:52.801Z,1.90
2023-02-12T06:54:21.351Z,2.20
2023-02-12T06:56:49.764Z,2.70
2023-02-12T06:59:18.331Z,2.00
2023-02-12T07:01:46.920Z,2.20
2023-02-12T07:04:15.568Z,2.60
2023-02-12T07:06:44.195Z,2.30
2023-02-12T07:09:12.773Z,2.40
2023-02-12T07:11:41.249Z,4.00
2023-02-12T07:14:17.724Z,3.70
2023-02-12T07:16:46.234Z,6.00
2023-02-12T07:19:15.182Z,4.40
2023-02-12T07:21:43.907Z,3.30
2023-02-12T07:24:12.876Z,2.80
2023-02-12T07:26:42.243Z,2.80
2023-02-12T07:29:11.345Z,2.50
2023-02-12T07:31:40.719Z,2.60
2023-02-12T07:34:10.240Z,2.70
2023-02-12T07:36:38.897Z,3.10
2023-02-12T07:39:07.374Z,3.40
2023-02-12T07:41:36.849Z,3.50
2023-02-12T07:44:10.783Z,3.00
2023-02-12T07:46:48.016Z,2.90
2023-02-12T07:49:19.702Z,2.90
2023-02-12T07:51:49.890Z,3.50
2023-02-12T07:54:18.737Z,2.80
2023-02-12T07:56:47.560Z,3.00
2023-02-12T07:59:19.422Z,2.80
2023-02-12T08:01:50.544Z,2.90
2023-02-12T08:04:22.376Z,3.30
2023-02-12T08:06:54.440Z,3.10
2023-02-12T08:09:28.449Z,3.00
2023-02-12T08:11:57.211Z,3.00
2023-02-12T08:14:27.610Z,3.30
2023-02-12T08:16:56.421Z,3.90
2023-02-12T08:19:26.733Z,4.10
2023-02-12T08:21:57.186Z,3.90
2023-02-12T08:24:26.132Z,4.20
2023-02-12T08:26:55.862Z,3.70
2023-02-12T08:29:28.378Z,3.90
2023-02-12T08:32:02.279Z,4.50
2023-02-12T08:34:33.833Z,3.30
2023-02-12T08:37:04.874Z,4.30
2023-02-12T08:39:33.391Z,3.70
2023-02-12T08:42:02.181Z,4.30
2023-02-12T08:44:30.850Z,4.10
2023-02-12T08:46:59.460Z,4.00
2023-02-12T08:49:30.006Z,4.00
2023-02-12T08:52:00.463Z,4.10
2023-02-12T08:54:31.348Z,3.90
2023-02-12T08:57:02.562Z,3.60
2023-02-12T08:59:31.850Z,4.40
2023-02-12T09:02:01.293Z,4.30
2023-02-12T09:04:30.487Z,4.00
2023-02-12T09:06:59.429Z,4.10
2023-02-12T09:09:28.309Z,4.30
2023-02-12T09:11:56.793Z,4.20
2023-02-12T09:14:25.426Z,4.40
2023-02-12T09:16:55.316Z,4.90
2023-02-12T09:19:23.976Z,3.50
2023-02-12T09:21:55.800Z,4.10
2023-02-12T09:24:28.114Z,4.30
2023-02-12T09:26:57.760Z,4.70
2023-02-12T09:29:26.451Z,4.50
2023-02-12T09:31:54.978Z,4.40
2023-02-12T09:34:23.707Z,4.90
2023-02-12T09:36:52.465Z,4.80
2023-02-12T09:39:20.940Z,5.10
2023-02-12T09:41:55.523Z,5.30
2023-02-12T09:44:49.140Z,5.10
2023-02-12T09:47:20.464Z,4.70
2023-02-12T09:49:55.134Z,4.10
2023-02-12T09:52:28.500Z,4.60
2023-02-12T09:54:57.637Z,4.50
2023-02-12T09:57:31.548Z,4.90
2023-02-12T10:00:11.383Z,4.70
2023-02-12T10:02:41.252Z,5.00
2023-02-12T10:05:37.940Z,4.20
2023-02-12T10:08:44.626Z,3.20
2023-02-12T10:11:40.642Z,4.00
2023-02-12T10:14:12.212Z,3.90
2023-02-12T10:17:08.209Z,5.10
2023-02-12T10:20:04.262Z,4.90
2023-02-12T10:22:56.771Z,4.00
2023-02-12T10:25:35.005Z,5.50
2023-02-12T10:28:12.541Z,4.90
2023-02-12T10:30:50.405Z,3.60
2023-02-12T10:33:27.557Z,4.10
2023-02-12T10:36:05.330Z,3.90
2023-02-12T10:38:40.367Z,4.10
2023-02-12T10:41:13.241Z,3.50
2023-02-12T10:43:41.984Z,3.60
2023-02-12T10:46:16.135Z,3.90
2023-02-12T10:48:48.330Z,4.30
2023-02-12T10:51:25.954Z,3.70
2023-02-12T10:53:54.411Z,3.40
2023-02-12T10:56:27.430Z,3.70
2023-02-12T10:58:59.914Z,3.40
2023-02-12T11:01:35.647Z,3.00
2023-02-12T11:04:21.443Z,2.40
2023-02-12T11:07:06.760Z,2.60
2023-02-12T11:09:36.598Z,2.10
2023-02-12T11:12:06.275Z,2.20
2023-02-12T11:14:34.812Z,2.10
2023-02-12T11:17:03.364Z,2.80
2023-02-12T11:19:34.631Z,2.30
2023-02-12T11:22:18.974Z,2.30
2023-02-12T11:25:01.955Z,2.00
2023-02-12T11:27:31.695Z,2.00
2023-02-12T11:30:20.695Z,2.40
2023-02-12T11:32:52.550Z,2.40
2023-02-12T11:35:27.416Z,2.30
2023-02-12T11:38:00.966Z,1.90
2023-02-12T11:40:34.079Z,2.20
2023-02-12T11:43:06.643Z,1.70
2023-02-12T11:45:48.033Z,1.50
2023-02-12T11:48:35.690Z,1.60
2023-02-12T11:51:09.366Z,1.60
2023-02-12T11:53:52.104Z,1.90
2023-02-12T11:56:21.554Z,1.80
2023-02-12T11:58:52.260Z,1.80
2023-02-12T12:01:34.522Z,1.60
2023-02-12T12:04:12.317Z,1.60
2023-02-12T12:06:52.735Z,2.10
2023-02-12T12:09:21.562Z,1.50
2023-02-12T12:12:10.878Z,1.90
2023-02-12T12:15:07.345Z,1.50
2023-02-12T12:18:17.869Z,1.50
2023-02-12T12:21:20.900Z,1.70
2023-02-12T12:24:10.509Z,1.60
2023-02-12T12:26:42.118Z,1.50
2023-02-12T12:29:26.863Z,1.80
2023-02-12T12:32:05.524Z,2.30
2023-02-12T12:34:34.326Z,3.00
2023-02-12T12:37:26.789Z,2.10
2023-02-12T12:40:01.863Z,3.30
2023-02-12T12:42:42.586Z,2.10
2023-02-12T12:45:38.786Z,2.60
2023-02-12T12:48:18.739Z,2.30
2023-02-12T12:51:15.808Z,5.60
2023-02-12T12:53:56.857Z,2.80
2023-02-12T12:56:34.325Z,3.10
2023-02-12T12:59:17.869Z,3.80
2023-02-12T13:02:24.450Z,2.50
2023-02-12T13:05:02.246Z,2.50
2023-02-12T13:07:56.694Z,2.00
2023-02-12T13:10:38.045Z,1.90
2023-02-12T13:13:44.546Z,2.90
2023-02-12T13:16:27.970Z,2.00
2023-02-12T13:19:05.313Z,1.90
2023-02-12T13:21:55.216Z,2.30
2023-02-12T13:24:28.292Z,2.40
2023-02-12T13:27:08.875Z,2.50
2023-02-12T13:30:16.323Z,2.10
2023-02-12T13:33:03.731Z,1.90
2023-02-12T13:35:35.330Z,2.50
2023-02-12T13:38:06.376Z,1.70
2023-02-12T13:40:36.064Z,2.50
2023-02-12T13:43:30.386Z,2.40
2023-02-12T13:46:17.344Z,2.20
2023-02-12T13:49:19.077Z,2.00
2023-02-12T13:51:57.507Z,2.40
2023-02-12T13:54:50.649Z,2.80
2023-02-12T13:57:21.133Z,2.70
2023-02-12T13:59:56.285Z,2.50
2023-02-12T14:02:33.822Z,2.60
2023-02-12T14:05:15.322Z,2.50
2023-02-12T14:07:55.920Z,2.50
2023-02-12T14:10:35.813Z,3.00
2023-02-12T14:13:16.728Z,3.20
2023-02-12T14:15:58.193Z,4.40
2023-02-12T14:18:37.718Z,3.60
2023-02-12T14:21:12.314Z,2.90
2023-02-12T14:23:51.051Z,2.90
2023-02-12T14:26:22.201Z,2.80
2023-02-12T14:29:02.383Z,4.30
2023-02-12T14:31:39.394Z,4.80
2023-02-12T14:34:08.379Z,4.10
2023-02-12T14:36:41.797Z,5.50
2023-02-12T14:39:19.550Z,4.60
2023-02-12T14:41:53.486Z,4.80
2023-02-12T14:44:23.464Z,8.70
2023-02-12T14:47:00.091Z,3.10
2023-02-12T14:49:39.943Z,3.30
2023-02-12T14:52:14.383Z,2.70
2023-02-12T14:54:48.937Z,2.30
2023-02-12T14:57:33.712Z,2.40
2023-02-12T15:00:05.497Z,3.20
2023-02-12T15:02:36.734Z,2.40
2023-02-12T15:05:19.506Z,1.90
2023-02-12T15:07:55.875Z,1.80
2023-02-12T15:10:37.481Z,2.10
2023-02-12T15:13:30.459Z,1.90
2023-02-12T15:16:09.627Z,1.70
2023-02-12T15:18:37.996Z,2.20
2023-02-12T15:21:12.344Z,1.60
2023-02-12T15:23:43.247Z,1.70
2023-02-12T15:26:18.186Z,2.10
2023-02-12T15:28:48.836Z,1.60
2023-02-12T15:31:21.124Z,1.40
2023-02-12T15:33:52.648Z,1.50
2023-02-12T15:36:24.743Z,1.70
2023-02-12T15:39:02.581Z,1.60
2023-02-12T15:41:34.101Z,2.00
2023-02-12T15:44:25.005Z,1.50
2023-02-12T15:47:08.779Z,1.60
2023-02-12T15:49:39.051Z,2.00
2023-02-12T15:52:17.286Z,2.00
2023-02-12T15:54:47.823Z,1.90
2023-02-12T15:57:24.685Z,1.80
2023-02-12T15:59:56.375Z,2.40
2023-02-12T16:02:33.388Z,3.70
2023-02-12T16:05:06.030Z,3.10
2023-02-12T16:07:37.203Z,2.20
2023-02-12T16:10:07.067Z,1.50
2023-02-12T16:12:37.854Z,1.50
2023-02-12T16:15:06.786Z,1.20
2023-02-12T16:17:38.413Z,1.40
2023-02-12T16:20:15.954Z,1.10
2023-02-12T16:22:46.210Z,1.30
2023-02-12T16:25:20.139Z,1.70
2023-02-12T16:28:04.533Z,0.90
2023-02-12T16:30:34.920Z,1.10
2023-02-12T16:33:03.593Z,1.00
2023-02-12T16:35:34.369Z,1.30
2023-02-12T16:38:39.819Z,1.30
2023-02-12T16:41:24.095Z,1.30
2023-02-12T16:44:01.819Z,1.20
2023-02-12T16:46:39.107Z,2.00
2023-02-12T16:49:17.527Z,2.20
2023-02-12T16:51:47.645Z,2.10
2023-02-12T16:54:36.394Z,1.50
2023-02-12T16:57:04.836Z,1.50
2023-02-12T16:59:33.410Z,1.30
2023-02-12T17:02:05.487Z,1.10
2023-02-12T17:04:33.940Z,1.60
2023-02-12T17:07:02.506Z,1.30
2023-02-12T17:09:30.945Z,1.30
2023-02-12T17:11:59.369Z,1.00
2023-02-12T17:14:27.869Z,1.30
2023-02-12T17:16:56.362Z,1.90
2023-02-12T17:19:24.816Z,2.40
2023-02-12T17:21:53.747Z,1.70
2023-02-12T17:24:22.221Z,1.70
2023-02-12T17:26:52.028Z,1.40
2023-02-12T17:29:23.453Z,1.70
2023-02-12T17:31:56.314Z,1.70
2023-02-12T17:34:25.739Z,1.70
2023-02-12T17:36:54.392Z,1.40
2023-02-12T17:39:22.973Z,1.20
2023-02-12T17:41:52.030Z,1.70
2023-02-12T17:44:20.543Z,1.60
2023-02-12T17:46:48.985Z,1.40
2023-02-12T17:49:17.445Z,1.40
2023-02-12T17:51:46.022Z,1.40
2023-02-12T17:54:16.163Z,1.50
2023-02-12T17:56:44.938Z,1.40
2023-02-12T17:59:13.513Z,1.80
2023-02-12T18:01:42.027Z,2.10
2023-02-12T18:04:10.590Z,2.50
2023-02-12T18:06:39.205Z,2.60
2023-02-12T18:09:07.768Z,2.70
2023-02-12T18:11:38.211Z,2.40
2023-02-12T18:14:06.738Z,2.50
2023-02-12T18:16:35.983Z,2.60
2023-02-12T18:19:05.731Z,3.00
2023-02-12T18:21:35.237Z,2.70
2023-02-12T18:24:04.047Z,2.10
2023-02-12T18:26:32.641Z,2.60
2023-02-12T18:29:01.434Z,2.60
2023-02-12T18:31:30.376Z,2.90
2023-02-12T18:33:58.975Z,2.10
2023-02-12T18:36:27.798Z,2.30
2023-02-12T18:38:56.293Z,2.80
2023-02-12T18:41:27.275Z,1.80
2023-02-12T18:43:57.658Z,2.30
2023-02-12T18:46:29.127Z,1.60
2023-02-12T18:48:58.315Z,1.80
2023-02-12T18:51:29.701Z,1.80
2023-02-12T18:54:01.819Z,1.70
2023-02-12T18:56:33.787Z,2.20
2023-02-12T18:59:05.412Z,2.60
2023-02-12T19:01:36.138Z,2.10
2023-02-12T19:04:09.858Z,1.80
2023-02-12T19:06:41.746Z,1.90
2023-02-12T19:09:12.698Z,2.30
2023-02-12T19:11:41.138Z,2.30
2023-02-12T19:14:09.530Z,2.30
2023-02-12T19:16:38.087Z,2.60
2023-02-12T19:19:06.789Z,2.80
2023-02-12T19:21:36.172Z,2.70
2023-02-12T19:24:05.804Z,2.70
2023-02-12T19:26:36.141Z,2.90
2023-02-12T19:29:05.634Z,2.20
2023-02-12T19:31:36.661Z,2.70
2023-02-12T19:34:08.371Z,2.90
2023-02-12T19:36:37.478Z,2.80
2023-02-12T19:39:06.433Z,2.60
2023-02-12T19:41:41.300Z,3.10
2023-02-12T19:44:12.785Z,2.80
2023-02-12T19:46:42.203Z,3.30
2023-02-12T19:49:17.932Z,3.30
2023-02-12T19:51:47.300Z,2.60
2023-02-12T19:54:17.933Z,3.60
2023-02-12T19:56:47.170Z,2.60
2023-02-12T19:59:18.103Z,3.20
2023-02-12T20:01:48.558Z,3.40
2023-02-12T20:04:20.578Z,3.30
2023-02-12T20:06:51.307Z,2.90
2023-02-12T20:09:22.569Z,3.80
2023-02-12T20:11:51.648Z,3.10
2023-02-12T20:14:22.989Z,3.30
2023-02-12T20:16:55.505Z,2.80
2023-02-12T20:19:30.272Z,3.20
2023-02-12T20:22:01.838Z,3.20
2023-02-12T20:24:33.459Z,3.60
2023-02-12T20:27:03.205Z,3.10
2023-02-12T20:29:31.649Z,3.20
2023-02-12T20:32:00.234Z,3.70
2023-02-12T20:34:29.013Z,3.40
2023-02-12T20:36:58.164Z,2.50
2023-02-12T20:39:26.767Z,3.30
2023-02-12T20:41:55.239Z,3.10
2023-02-12T20:44:24.177Z,3.00
2023-02-12T20:46:56.390Z,3.40
2023-02-12T20:49:26.346Z,2.90
2023-02-12T20:51:55.174Z,3.30
2023-02-12T20:54:24.121Z,3.40
2023-02-12T20:56:52.674Z,3.30
2023-02-12T20:59:21.134Z,3.00
2023-02-12T21:01:50.067Z,3.50
2023-02-12T21:04:19.786Z,3.00
2023-02-12T21:06:48.764Z,3.50
2023-02-12T21:09:19.171Z,2.80
2023-02-12T21:11:48.367Z,3.20
2023-02-12T21:14:22.851Z,3.40
2023-02-12T21:16:55.409Z,3.90
2023-02-12T21:19:24.813Z,3.10
2023-02-12T21:21:54.222Z,2.90
2023-02-12T21:24:25.650Z,3.40
2023-02-12T21:26:56.884Z,3.40
2023-02-12T21:29:33.305Z,3.40
2023-02-12T21:32:01.892Z,3.20
2023-02-12T21:34:30.637Z,3.20
2023-02-12T21:36:59.099Z,3.90
2023-02-12T21:39:28.695Z,2.90
2023-02-12T21:42:01.957Z,3.70
2023-02-12T21:44:33.061Z,3.10
2023-02-12T21:47:02.108Z,3.00
2023-02-12T21:49:30.560Z,3.10
2023-02-12T21:52:04.572Z,3.30
2023-02-12T21:54:34.003Z,3.90
2023-02-12T21:57:02.658Z,2.70
2023-02-12T21:59:32.508Z,3.40
2023-02-12T22:02:02.091Z,3.20
2023-02-12T22:04:30.822Z,3.20
2023-02-12T22:07:03.769Z,3.00
2023-02-12T22:09:32.731Z,2.70
2023-02-12T22:12:01.259Z,3.10
2023-02-12T22:14:29.874Z,3.30
2023-02-12T22:16:58.965Z,3.30
2023-02-12T22:19:27.635Z,3.60
2023-02-12T22:21:56.164Z,2.80
2023-02-12T22:24:24.691Z,3.30
2023-02-12T22:26:54.974Z,3.10
2023-02-12T22:29:24.020Z,2.80
2023-02-12T22:31:52.838Z,2.80
2023-02-12T22:34:21.671Z,3.20
2023-02-12T22:36:50.123Z,2.70
2023-02-12T22:39:19.037Z,2.60
2023-02-12T22:41:47.749Z,3.00
2023-02-12T22:44:17.643Z,2.90
2023-02-12T22:46:47.480Z,2.80
2023-02-12T22:49:16.910Z,2.40
2023-02-12T22:51:45.349Z,2.80
2023-02-12T22:54:16.303Z,2.60
2023-02-12T22:56:45.919Z,2.80
2023-02-12T22:59:14.501Z,2.50
2023-02-12T23:01:43.584Z,2.90
2023-02-12T23:04:18.194Z,2.20
2023-02-12T23:06:47.555Z,2.90
2023-02-12T23:09:19.467Z,2.20
2023-02-12T23:11:48.605Z,2.00
2023-02-12T23:14:20.009Z,2.40
2023-02-12T23:16:48.937Z,2.30
2023-02-12T23:19:17.509Z,3.30
2023-02-12T23:21:46.063Z,3.50
2023-02-12T23:24:15.313Z,2.70
2023-02-12T23:26:44.146Z,2.70
2023-02-12T23:29:12.994Z,2.80
2023-02-12T23:31:41.627Z,3.30
2023-02-12T23:34:10.392Z,4.30
2023-02-12T23:36:39.081Z,4.00
2023-02-12T23:39:07.790Z,4.50
2023-02-12T23:41:36.472Z,4.30
2023-02-12T23:44:05.298Z,4.00
2023-02-12T23:46:33.776Z,3.80
2023-02-12T23:49:02.545Z,4.50
2023-02-12T23:51:31.844Z,3.70
2023-02-12T23:54:00.826Z,3.10
2023-02-12T23:56:29.876Z,3.30
2023-02-12T23:58:58.373Z,3.00
